createdAt,value
2023-05-08T00:00:22.270Z,6.23
2023-05-08T00:02:49.229Z,6.40
2023-05-08T00:05:16.597Z,6.20
2023-05-08T00:07:43.752Z,5.83
2023-05-08T00:10:11.224Z,6.20
2023-05-08T00:12:38.851Z,5.50
2023-05-08T00:15:06.785Z,6.00
2023-05-08T00:17:34.147Z,5.50
2023-05-08T00:20:01.037Z,6.20
2023-05-08T00:22:27.966Z,6.10
2023-05-08T00:24:55.044Z,5.43
2023-05-08T00:27:21.889Z,6.23
2023-05-08T00:29:49.113Z,6.60
2023-05-08T00:32:16.299Z,6.47
2023-05-08T00:34:43.273Z,5.77
2023-05-08T00:37:10.272Z,6.10
2023-05-08T00:39:37.278Z,6.03
2023-05-08T00:42:04.192Z,6.27
2023-05-08T00:44:31.230Z,5.90
2023-05-08T00:46:58.509Z,6.43
2023-05-08T00:49:26.246Z,6.00
2023-05-08T00:51:55.857Z,6.20
2023-05-08T00:54:23.361Z,6.40
2023-05-08T00:56:52.013Z,5.93
2023-05-08T00:59:21.139Z,5.83
2023-05-08T01:01:49.280Z,6.10
2023-05-08T01:04:21.325Z,6.10
2023-05-08T01:06:49.630Z,6.40
2023-05-08T01:09:16.454Z,6.70
2023-05-08T01:11:55.750Z,6.47
2023-05-08T01:14:29.696Z,6.60
2023-05-08T01:17:12.282Z,6.00
2023-05-08T01:20:04.081Z,6.77
2023-05-08T01:23:05.332Z,6.07
2023-05-08T01:25:56.654Z,6.83
2023-05-08T01:28:34.259Z,6.70
2023-05-08T01:31:22.909Z,6.53
2023-05-08T01:34:12.161Z,6.17
2023-05-08T01:36:51.120Z,6.67
2023-05-08T01:39:21.662Z,7.27
2023-05-08T01:42:00.717Z,6.93
2023-05-08T01:44:36.869Z,6.83
2023-05-08T01:47:08.002Z,6.70
2023-05-08T01:49:42.186Z,6.73
2023-05-08T01:52:33.398Z,7.27
2023-05-08T01:55:06.071Z,6.43
2023-05-08T01:57:37.216Z,8.00
2023-05-08T02:00:06.194Z,6.90
2023-05-08T02:02:38.303Z,7.00
2023-05-08T02:05:07.566Z,7.63
2023-05-08T02:07:38.053Z,7.50
2023-05-08T02:10:06.535Z,7.50
2023-05-08T02:12:34.834Z,7.27
2023-05-08T02:15:03.286Z,8.63
2023-05-08T02:17:32.055Z,7.23
2023-05-08T02:20:02.429Z,6.93
2023-05-08T02:22:32.310Z,7.73
2023-05-08T02:24:59.263Z,7.43
2023-05-08T02:27:29.178Z,7.37
2023-05-08T02:29:57.721Z,8.17
2023-05-08T02:32:27.025Z,7.33
2023-05-08T02:35:03.004Z,7.90
2023-05-08T02:37:32.236Z,7.30
2023-05-08T02:40:02.201Z,7.33
2023-05-08T02:42:30.607Z,8.27
2023-05-08T02:44:59.038Z,7.37
2023-05-08T02:47:29.895Z,7.50
2023-05-08T02:50:17.471Z,7.40
2023-05-08T02:52:49.274Z,8.00
2023-05-08T02:55:34.561Z,7.20
2023-05-08T02:58:29.580Z,7.50
2023-05-08T03:01:08.391Z,7.60
2023-05-08T03:03:42.255Z,7.67
2023-05-08T03:06:13.925Z,7.60
2023-05-08T03:08:43.191Z,7.47
2023-05-08T03:11:15.248Z,7.87
2023-05-08T03:13:44.984Z,7.30
2023-05-08T03:16:18.532Z,7.80
2023-05-08T03:18:52.485Z,7.43
2023-05-08T03:21:22.522Z,7.73
2023-05-08T03:23:52.921Z,7.97
2023-05-08T03:26:21.304Z,7.57
2023-05-08T03:28:50.570Z,7.50
2023-05-08T03:31:23.749Z,7.50
2023-05-08T03:33:54.643Z,7.23
2023-05-08T03:36:22.675Z,7.07
2023-05-08T03:38:49.905Z,7.73
2023-05-08T03:41:17.119Z,8.07
2023-05-08T03:43:44.309Z,7.50
2023-05-08T03:46:12.412Z,7.67
2023-05-08T03:48:40.592Z,7.63
2023-05-08T03:51:07.515Z,7.97
2023-05-08T03:53:37.218Z,7.97
2023-05-08T03:56:04.860Z,7.50
2023-05-08T03:58:41.639Z,7.63
2023-05-08T04:01:18.734Z,7.57
2023-05-08T04:04:09.569Z,7.10
2023-05-08T04:07:08.575Z,7.57
2023-05-08T04:09:41.642Z,7.57
2023-05-08T04:12:38.911Z,7.40
2023-05-08T04:15:14.296Z,7.37
2023-05-08T04:17:50.937Z,7.47
2023-05-08T04:20:26.060Z,7.50
2023-05-08T04:22:55.978Z,7.67
2023-05-08T04:25:25.120Z,7.30
2023-05-08T04:27:53.329Z,8.07
2023-05-08T04:30:22.419Z,9.47
2023-05-08T04:32:50.687Z,7.97
2023-05-08T04:35:18.030Z,8.63
2023-05-08T04:37:47.419Z,8.00
2023-05-08T04:40:14.959Z,8.10
2023-05-08T04:42:47.589Z,7.80
2023-05-08T04:45:18.037Z,8.00
2023-05-08T04:47:45.313Z,7.23
2023-05-08T04:50:12.433Z,7.27
2023-05-08T04:52:39.836Z,7.07
2023-05-08T04:55:07.510Z,6.93
2023-05-08T04:57:36.358Z,8.73
2023-05-08T05:00:03.737Z,7.10
2023-05-08T05:02:32.924Z,7.47
2023-05-08T05:05:01.601Z,7.67
2023-05-08T05:07:29.850Z,7.40
2023-05-08T05:09:57.525Z,7.23
2023-05-08T05:12:24.574Z,7.07
2023-05-08T05:14:51.813Z,7.73
2023-05-08T05:17:18.844Z,7.63
2023-05-08T05:19:45.827Z,7.60
2023-05-08T05:22:12.864Z,7.97
2023-05-08T05:24:40.957Z,7.77
2023-05-08T05:27:08.205Z,7.33
2023-05-08T05:29:35.418Z,7.23
2023-05-08T05:32:03.248Z,7.87
2023-05-08T05:34:30.433Z,7.27
2023-05-08T05:36:57.722Z,6.87
2023-05-08T05:39:25.068Z,7.33
2023-05-08T05:41:52.132Z,7.63
2023-05-08T05:44:19.296Z,7.40
2023-05-08T05:46:46.680Z,6.80
2023-05-08T05:49:13.636Z,7.27
2023-05-08T05:51:40.873Z,7.33
2023-05-08T05:54:08.994Z,6.80
2023-05-08T05:56:36.171Z,6.97
2023-05-08T05:59:03.729Z,6.67
2023-05-08T06:01:30.579Z,6.83
2023-05-08T06:03:58.479Z,7.27
2023-05-08T06:06:25.565Z,7.03
2023-05-08T06:08:53.618Z,7.07
2023-05-08T06:11:22.918Z,7.47
2023-05-08T06:13:50.685Z,6.87
2023-05-08T06:16:20.720Z,7.33
2023-05-08T06:18:47.765Z,7.27
2023-05-08T06:21:14.624Z,6.77
2023-05-08T06:23:42.885Z,7.13
2023-05-08T06:26:09.847Z,7.30
2023-05-08T06:28:36.719Z,6.93
2023-05-08T06:31:03.808Z,7.03
2023-05-08T06:33:31.707Z,6.90
2023-05-08T06:35:58.632Z,6.43
2023-05-08T06:38:25.586Z,6.90
2023-05-08T06:40:52.500Z,7.10
2023-05-08T06:43:19.392Z,6.97
2023-05-08T06:45:46.501Z,8.33
2023-05-08T06:48:13.659Z,7.23
2023-05-08T06:50:41.077Z,7.20
2023-05-08T06:53:09.026Z,7.47
2023-05-08T06:55:36.200Z,7.87
2023-05-08T06:58:03.206Z,7.53
2023-05-08T07:00:30.026Z,7.17
2023-05-08T07:02:56.957Z,6.83
2023-05-08T07:05:23.960Z,7.37
2023-05-08T07:07:50.859Z,7.30
2023-05-08T07:10:19.970Z,7.57
2023-05-08T07:12:47.118Z,7.57
2023-05-08T07:15:25.634Z,7.13
2023-05-08T07:17:54.006Z,7.50
2023-05-08T07:20:21.618Z,6.60
2023-05-08T07:22:48.663Z,6.57
2023-05-08T07:25:16.284Z,6.57
2023-05-08T07:27:43.543Z,6.97
2023-05-08T07:30:10.762Z,6.73
2023-05-08T07:32:39.390Z,7.87
2023-05-08T07:35:10.946Z,7.47
2023-05-08T07:37:40.537Z,7.43
2023-05-08T07:40:08.812Z,7.27
2023-05-08T07:42:42.884Z,7.10
2023-05-08T07:45:11.902Z,7.43
2023-05-08T07:47:48.288Z,6.83
2023-05-08T07:50:15.353Z,7.47
2023-05-08T07:52:42.274Z,6.93
2023-05-08T07:55:09.553Z,7.10
2023-05-08T07:57:40.757Z,7.53
2023-05-08T08:00:10.875Z,7.00
2023-05-08T08:02:41.757Z,6.93
2023-05-08T08:05:09.194Z,7.70
2023-05-08T08:07:36.236Z,6.67
2023-05-08T08:10:05.024Z,6.77
2023-05-08T08:12:32.300Z,7.13
2023-05-08T08:14:59.177Z,7.30
2023-05-08T08:17:28.963Z,6.83
2023-05-08T08:19:57.230Z,7.13
2023-05-08T08:22:25.544Z,7.00
2023-05-08T08:24:55.115Z,7.47
2023-05-08T08:27:22.597Z,7.40
2023-05-08T08:29:51.201Z,7.43
2023-05-08T08:32:19.936Z,6.73
2023-05-08T08:34:46.854Z,7.27
2023-05-08T08:37:13.679Z,7.87
2023-05-08T08:39:40.742Z,7.73
2023-05-08T08:42:07.586Z,7.80
2023-05-08T08:44:34.677Z,7.70
2023-05-08T08:47:03.088Z,7.20
2023-05-08T08:49:34.519Z,7.77
2023-05-08T08:52:28.467Z,8.03
2023-05-08T08:54:57.452Z,8.33
2023-05-08T08:57:27.720Z,7.93
2023-05-08T08:59:56.133Z,7.53
2023-05-08T09:02:24.486Z,8.17
2023-05-08T09:04:51.845Z,8.47
2023-05-08T09:07:18.801Z,8.30
2023-05-08T09:09:47.060Z,7.87
2023-05-08T09:12:14.608Z,9.10
2023-05-08T09:14:41.603Z,8.37
2023-05-08T09:17:09.763Z,8.37
2023-05-08T09:19:36.767Z,8.43
2023-05-08T09:22:04.387Z,8.10
2023-05-08T09:25:09.816Z,9.13
2023-05-08T09:27:37.078Z,8.60
2023-05-08T09:30:12.417Z,8.83
2023-05-08T09:32:41.878Z,9.17
2023-05-08T09:35:10.439Z,9.73
2023-05-08T09:37:43.358Z,9.83
2023-05-08T09:40:14.530Z,9.97
2023-05-08T09:42:41.577Z,9.87
2023-05-08T09:45:09.515Z,9.20
2023-05-08T09:47:40.213Z,9.33
2023-05-08T09:50:11.219Z,9.30
2023-05-08T09:52:45.849Z,10.60
2023-05-08T09:55:12.845Z,9.23
2023-05-08T09:57:51.671Z,9.73
2023-05-08T10:00:18.973Z,10.57
2023-05-08T10:02:59.380Z,10.33
2023-05-08T10:05:27.253Z,10.10
2023-05-08T10:07:54.241Z,10.87
2023-05-08T10:10:28.877Z,11.57
2023-05-08T10:12:57.324Z,9.73
2023-05-08T10:15:26.184Z,10.37
2023-05-08T10:18:07.255Z,10.67
2023-05-08T10:20:39.217Z,10.00
2023-05-08T10:23:12.132Z,10.97
2023-05-08T10:25:45.267Z,10.47
2023-05-08T10:28:37.293Z,11.23
2023-05-08T10:31:07.232Z,11.37
2023-05-08T10:33:35.296Z,11.27
2023-05-08T10:36:03.012Z,11.07
2023-05-08T10:38:31.633Z,12.33
2023-05-08T10:41:01.687Z,10.13
2023-05-08T10:43:31.132Z,10.33
2023-05-08T10:46:02.872Z,10.80
2023-05-08T10:48:47.138Z,10.20
2023-05-08T10:51:22.633Z,10.63
2023-05-08T10:53:55.690Z,10.47
2023-05-08T10:56:27.335Z,10.50
2023-05-08T10:58:58.568Z,11.57
2023-05-08T11:01:26.859Z,10.40
2023-05-08T11:03:56.112Z,12.23
2023-05-08T11:06:45.062Z,11.23
2023-05-08T11:09:29.853Z,12.17
2023-05-08T11:12:10.486Z,11.07
2023-05-08T11:14:42.166Z,10.37
2023-05-08T11:17:10.307Z,11.70
2023-05-08T11:19:38.034Z,11.90
2023-05-08T11:22:13.845Z,11.77
2023-05-08T11:24:47.628Z,11.20
2023-05-08T11:27:15.757Z,10.23
2023-05-08T11:29:42.754Z,10.93
2023-05-08T11:32:09.719Z,11.67
2023-05-08T11:34:42.835Z,11.17
2023-05-08T11:37:11.422Z,11.50
2023-05-08T11:39:38.294Z,11.03
2023-05-08T11:42:29.758Z,10.43
2023-05-08T11:45:08.230Z,11.53
2023-05-08T11:47:48.688Z,11.40
2023-05-08T11:50:16.070Z,11.67
2023-05-08T11:52:43.688Z,69.07
2023-05-08T11:55:13.175Z,12.67
2023-05-08T11:57:40.100Z,11.30
2023-05-08T12:00:11.797Z,11.37
2023-05-08T12:02:41.314Z,10.67
2023-05-08T12:05:09.839Z,11.17
2023-05-08T12:07:44.692Z,11.83
2023-05-08T12:10:12.025Z,10.80
2023-05-08T12:12:40.362Z,10.63
2023-05-08T12:15:12.665Z,10.23
2023-05-08T12:17:39.862Z,10.17
2023-05-08T12:20:14.973Z,11.43
2023-05-08T12:22:43.396Z,11.00
2023-05-08T12:25:12.051Z,11.70
2023-05-08T12:27:39.355Z,11.90
2023-05-08T12:30:08.733Z,12.73
2023-05-08T12:32:38.886Z,11.97
2023-05-08T12:35:07.629Z,10.50
2023-05-08T12:37:34.674Z,12.37
2023-05-08T12:40:02.532Z,12.07
2023-05-08T12:43:05.104Z,12.07
2023-05-08T12:45:35.825Z,11.27
2023-05-08T12:48:05.912Z,11.97
2023-05-08T12:50:38.655Z,11.73
2023-05-08T12:53:07.152Z,10.47
2023-05-08T12:55:36.397Z,11.77
2023-05-08T12:58:05.162Z,12.33
2023-05-08T13:00:39.529Z,11.83
2023-05-08T13:03:08.807Z,12.73
2023-05-08T13:05:37.364Z,13.80
2023-05-08T13:08:11.543Z,13.53
2023-05-08T13:10:51.729Z,13.53
2023-05-08T13:13:20.877Z,15.23
2023-05-08T13:15:48.922Z,14.80
2023-05-08T13:18:17.138Z,14.87
2023-05-08T13:20:44.465Z,13.93
2023-05-08T13:23:11.681Z,13.37
2023-05-08T13:25:39.330Z,13.10
2023-05-08T13:28:07.897Z,11.87
2023-05-08T13:30:36.780Z,12.93
2023-05-08T13:33:04.629Z,12.77
2023-05-08T13:35:33.007Z,13.13
2023-05-08T13:38:00.052Z,13.73
2023-05-08T13:40:28.219Z,14.77
2023-05-08T13:42:55.322Z,13.47
2023-05-08T13:45:22.501Z,13.40
2023-05-08T13:47:50.695Z,13.70
2023-05-08T13:50:21.973Z,14.03
2023-05-08T13:52:50.506Z,17.70
2023-05-08T13:55:21.321Z,14.80
2023-05-08T13:57:48.829Z,14.57
2023-05-08T14:00:16.311Z,13.97
2023-05-08T14:02:43.267Z,17.00
2023-05-08T14:05:10.578Z,14.80
2023-05-08T14:07:37.657Z,16.37
2023-05-08T14:10:05.124Z,16.37
2023-05-08T14:12:36.160Z,15.97
2023-05-08T14:15:07.030Z,16.17
2023-05-08T14:17:34.021Z,16.73
2023-05-08T14:20:01.209Z,16.27
2023-05-08T14:22:28.114Z,16.57
2023-05-08T14:24:55.316Z,17.53
2023-05-08T14:27:22.605Z,16.93
2023-05-08T14:29:49.647Z,17.20
2023-05-08T14:32:16.526Z,21.57
2023-05-08T14:34:43.544Z,20.77
2023-05-08T14:37:11.355Z,20.87
2023-05-08T14:39:38.274Z,18.10
2023-05-08T14:42:21.970Z,18.20
2023-05-08T14:44:50.163Z,19.20
2023-05-08T14:47:17.635Z,18.47
2023-05-08T14:49:44.556Z,18.30
2023-05-08T14:52:11.397Z,19.47
2023-05-08T14:54:38.579Z,17.90
2023-05-08T14:57:05.662Z,18.13
2023-05-08T14:59:33.101Z,19.20
2023-05-08T15:02:00.126Z,18.87
2023-05-08T15:04:27.479Z,19.63
2023-05-08T15:06:54.568Z,20.73
2023-05-08T15:09:21.353Z,20.30
2023-05-08T15:11:48.348Z,19.43
2023-05-08T15:14:15.411Z,18.63
2023-05-08T15:16:42.316Z,20.10
2023-05-08T15:19:09.748Z,20.17
2023-05-08T15:21:36.937Z,20.50
2023-05-08T15:24:04.111Z,21.00
2023-05-08T15:26:31.107Z,22.07
2023-05-08T15:28:58.132Z,22.10
2023-05-08T15:31:25.038Z,23.40
2023-05-08T15:33:51.996Z,23.83
2023-05-08T15:36:18.877Z,22.00
2023-05-08T15:38:45.985Z,22.00
2023-05-08T15:41:15.472Z,24.07
2023-05-08T15:43:45.209Z,23.73
2023-05-08T15:46:12.302Z,23.17
2023-05-08T15:48:39.527Z,24.00
2023-05-08T15:51:06.746Z,23.40
2023-05-08T15:53:34.340Z,23.47
2023-05-08T15:56:01.383Z,23.97
2023-05-08T15:58:28.567Z,23.47
2023-05-08T16:00:56.994Z,23.17
2023-05-08T16:03:24.458Z,21.37
2023-05-08T16:05:51.482Z,21.30
2023-05-08T16:08:18.696Z,22.43
2023-05-08T16:10:45.627Z,22.23
2023-05-08T16:13:12.565Z,21.50
2023-05-08T16:15:39.485Z,21.50
2023-05-08T16:18:08.005Z,22.77
2023-05-08T16:20:35.953Z,23.03
2023-05-08T16:23:03.436Z,23.27
2023-05-08T16:25:30.577Z,23.07
2023-05-08T16:27:57.776Z,22.83
2023-05-08T16:30:24.759Z,22.13
2023-05-08T16:32:51.776Z,22.67
2023-05-08T16:35:19.704Z,21.60
2023-05-08T16:37:46.903Z,22.63
2023-05-08T16:40:13.910Z,23.07
2023-05-08T16:42:40.894Z,23.00
2023-05-08T16:45:08.804Z,24.30
2023-05-08T16:47:36.082Z,23.07
2023-05-08T16:50:05.024Z,23.17
2023-05-08T16:52:33.046Z,23.83
2023-05-08T16:55:10.203Z,24.03
2023-05-08T16:57:37.538Z,23.97
2023-05-08T17:00:05.722Z,24.80
2023-05-08T17:02:32.618Z,24.53
2023-05-08T17:05:00.174Z,24.33
2023-05-08T17:07:27.482Z,24.10
2023-05-08T17:09:58.133Z,25.70
2023-05-08T17:12:25.288Z,24.13
2023-05-08T17:14:52.108Z,26.20
2023-05-08T17:17:18.969Z,27.47
2023-05-08T17:19:46.043Z,32.80
2023-05-08T17:22:13.217Z,31.70
2023-05-08T17:24:40.115Z,30.57
2023-05-08T17:27:08.041Z,30.97
2023-05-08T17:29:35.598Z,29.77
2023-05-08T17:32:03.212Z,28.97
2023-05-08T17:34:30.595Z,28.77
2023-05-08T17:36:57.671Z,28.87
2023-05-08T17:39:24.679Z,28.57
2023-05-08T17:41:51.894Z,27.90
2023-05-08T17:44:19.018Z,27.13
2023-05-08T17:46:46.287Z,27.50
2023-05-08T17:49:15.420Z,26.20
2023-05-08T17:51:43.583Z,24.27
2023-05-08T17:54:10.417Z,25.40
2023-05-08T17:56:37.316Z,23.97
2023-05-08T17:59:04.158Z,23.83
2023-05-08T18:01:31.386Z,22.67
2023-05-08T18:03:58.197Z,20.60
2023-05-08T18:06:25.122Z,20.67
2023-05-08T18:08:52.150Z,20.93
2023-05-08T18:11:23.758Z,20.73
2023-05-08T18:13:52.317Z,20.33
2023-05-08T18:16:21.320Z,19.17
2023-05-08T18:18:49.462Z,18.57
2023-05-08T18:21:16.421Z,19.53
2023-05-08T18:23:43.528Z,17.80
2023-05-08T18:26:17.203Z,18.03
2023-05-08T18:28:44.486Z,17.53
2023-05-08T18:31:12.254Z,17.77
2023-05-08T18:33:39.501Z,17.17
2023-05-08T18:36:07.409Z,17.30
2023-05-08T18:38:34.991Z,17.53
2023-05-08T18:41:03.867Z,17.10
2023-05-08T18:43:31.734Z,16.47
2023-05-08T18:46:00.590Z,17.70
2023-05-08T18:48:27.846Z,16.40
2023-05-08T18:50:58.726Z,17.40
2023-05-08T18:53:25.861Z,16.77
2023-05-08T18:55:53.022Z,16.63
2023-05-08T18:58:20.301Z,16.30
2023-05-08T19:00:47.426Z,15.53
2023-05-08T19:03:14.776Z,15.67
2023-05-08T19:05:42.336Z,15.30
2023-05-08T19:08:09.341Z,15.70
2023-05-08T19:10:36.284Z,16.43
2023-05-08T19:13:03.634Z,15.83
2023-05-08T19:15:31.135Z,16.63
2023-05-08T19:17:58.066Z,16.23
2023-05-08T19:20:25.293Z,16.13
2023-05-08T19:22:52.130Z,15.30
2023-05-08T19:25:19.283Z,15.97
2023-05-08T19:27:46.430Z,15.60
2023-05-08T19:30:13.791Z,16.63
2023-05-08T19:32:40.802Z,16.53
2023-05-08T19:35:09.364Z,16.33
2023-05-08T19:37:36.493Z,16.43
2023-05-08T19:40:03.913Z,18.10
2023-05-08T19:42:31.378Z,19.90
2023-05-08T19:44:58.207Z,20.97
2023-05-08T19:47:25.076Z,19.90
2023-05-08T19:49:52.200Z,18.00
2023-05-08T19:52:19.845Z,18.07
2023-05-08T19:54:46.846Z,17.30
2023-05-08T19:57:13.929Z,18.37
2023-05-08T19:59:40.850Z,18.03
2023-05-08T20:02:07.800Z,17.83
2023-05-08T20:04:48.645Z,19.17
2023-05-08T20:07:21.956Z,17.70
2023-05-08T20:09:48.938Z,18.13
2023-05-08T20:12:15.828Z,17.93
2023-05-08T20:14:42.999Z,18.63
2023-05-08T20:17:10.107Z,19.63
2023-05-08T20:19:37.174Z,18.77
2023-05-08T20:22:04.315Z,20.47
2023-05-08T20:24:32.368Z,19.23
2023-05-08T20:26:59.393Z,18.70
2023-05-08T20:29:26.829Z,19.33
2023-05-08T20:31:54.517Z,19.03
2023-05-08T20:34:22.047Z,18.80
2023-05-08T20:36:49.293Z,18.63
2023-05-08T20:39:16.303Z,19.17
2023-05-08T20:41:43.415Z,19.53
2023-05-08T20:44:12.512Z,18.60
2023-05-08T20:46:40.881Z,18.43
2023-05-08T20:49:07.870Z,19.73
2023-05-08T20:51:36.548Z,19.43
2023-05-08T20:54:04.438Z,19.43
2023-05-08T20:56:32.309Z,18.33
2023-05-08T20:58:59.168Z,19.93
2023-05-08T21:01:26.253Z,20.17
2023-05-08T21:03:53.244Z,19.47
2023-05-08T21:06:20.176Z,18.10
2023-05-08T21:08:47.571Z,18.07
2023-05-08T21:11:14.992Z,17.37
2023-05-08T21:13:44.480Z,16.67
2023-05-08T21:16:11.938Z,15.43
2023-05-08T21:18:39.015Z,14.10
2023-05-08T21:21:14.858Z,12.27
2023-05-08T21:23:41.883Z,11.23
2023-05-08T21:26:08.736Z,10.70
2023-05-08T21:28:36.004Z,10.40
2023-05-08T21:31:03.150Z,10.50
2023-05-08T21:33:30.647Z,10.40
2023-05-08T21:35:59.051Z,10.83
2023-05-08T21:38:25.941Z,9.90
2023-05-08T21:40:53.727Z,11.07
2023-05-08T21:43:20.537Z,11.53
2023-05-08T21:45:47.438Z,10.83
2023-05-08T21:48:14.358Z,10.80
2023-05-08T21:50:41.191Z,11.50
2023-05-08T21:53:08.409Z,10.63
2023-05-08T21:55:35.557Z,11.43
2023-05-08T21:58:02.466Z,10.80
2023-05-08T22:00:29.452Z,11.20
2023-05-08T22:02:56.928Z,11.60
2023-05-08T22:05:24.497Z,11.50
2023-05-08T22:07:51.614Z,10.97
2023-05-08T22:10:18.566Z,11.40
2023-05-08T22:12:46.185Z,11.33
2023-05-08T22:15:28.340Z,10.73
2023-05-08T22:17:57.886Z,11.40
2023-05-08T22:20:25.815Z,11.03
2023-05-08T22:22:53.005Z,11.20
2023-05-08T22:25:21.870Z,11.33
2023-05-08T22:27:49.103Z,11.43
2023-05-08T22:30:16.065Z,10.90
2023-05-08T22:32:43.036Z,11.13
2023-05-08T22:35:10.327Z,10.67
2023-05-08T22:37:38.068Z,10.53
2023-05-08T22:40:06.058Z,10.90
2023-05-08T22:42:33.059Z,11.30
2023-05-08T22:44:59.957Z,12.47
2023-05-08T22:47:26.939Z,12.03
2023-05-08T22:49:54.493Z,10.87
2023-05-08T22:52:21.650Z,11.40
2023-05-08T22:54:48.484Z,12.20
2023-05-08T22:57:15.784Z,11.43
2023-05-08T22:59:42.878Z,10.83
2023-05-08T23:02:09.749Z,11.20
2023-05-08T23:04:36.904Z,10.30
2023-05-08T23:07:04.030Z,11.90
2023-05-08T23:09:31.084Z,11.27
2023-05-08T23:11:58.334Z,11.50
2023-05-08T23:14:25.555Z,11.80
2023-05-08T23:16:52.456Z,11.53
2023-05-08T23:19:19.463Z,11.33
2023-05-08T23:21:46.478Z,10.10
2023-05-08T23:24:13.386Z,11.50
2023-05-08T23:26:42.142Z,11.70
2023-05-08T23:29:09.151Z,11.50
2023-05-08T23:31:36.156Z,11.80
2023-05-08T23:34:03.253Z,11.60
2023-05-08T23:36:30.606Z,11.47
2023-05-08T23:38:57.817Z,11.70
2023-05-08T23:41:26.431Z,10.93
2023-05-08T23:43:53.491Z,12.20
2023-05-08T23:46:20.494Z,11.60
2023-05-08T23:48:48.035Z,11.60
2023-05-08T23:51:15.744Z,11.80
2023-05-08T23:53:42.858Z,11.10
2023-05-08T23:56:09.845Z,11.43
2023-05-08T23:58:36.838Z,11.27
